Time,TemperatureF,DewpointF,PressureIn,WindDirection,WindDirectionDegrees,WindSpeedMPH,WindSpeedGustMPH,Humidity,HourlyPrecipIn,Conditions,Clouds,dailyrainin,SoftwareType,DateUTC
2013-04-01 00:01:00,34.4,26.0,29.93,NNW,333,3.0,7.0,70,0.00,,,0.00,weatherlink.com 1.10,2013-04-01 05:01:00,
2013-04-01 00:16:00,34.2,25.0,29.93,NW,310,4.0,7.0,70,0.00,,,0.00,weatherlink.com 1.10,2013-04-01 05:16:00,
2013-04-01 00:31:00,33.4,25.0,29.94,NW,315,3.0,6.0,71,0.00,,,0.00,weatherlink.com 1.10,2013-04-01 05:31:00,
2013-04-01 00:46:00,33.3,24.0,29.94,NNW,329,4.0,8.0,68,0.00,,,0.00,weatherlink.com 1.10,2013-04-01 05:46:00,
2013-04-01 01:01:00,33.3,23.0,29.95,NNW,348,3.0,7.0,67,0.00,,,0.00,weatherlink.com 1.10,2013-04-01 06:01:00,
2013-04-01 01:46:00,32.7,22.0,29.96,NNW,332,4.0,8.0,66,0.00,,,0.00,weatherlink.com 1.10,2013-04-01 06:46:00,
2013-04-01 02:01:00,32.4,23.0,29.97,NW,317,2.0,7.0,68,0.00,,,0.00,weatherlink.com 1.10,2013-04-01 07:01:00,
2013-04-01 02:16:00,32.0,23.0,29.97,NW,325,4.0,7.0,70,0.00,,,0.00,weatherlink.com 1.10,2013-04-01 07:16:00,
2013-04-01 02:31:00,31.5,23.0,29.98,NW,324,2.0,7.0,71,0.00,,,0.00,weatherlink.com 1.10,2013-04-01 07:31:00,
2013-04-01 02:46:00,31.4,23.0,29.98,NNW,331,2.0,9.0,70,0.00,,,0.00,weatherlink.com 1.10,2013-04-01 07:46:00,
2013-04-01 03:01:00,31.2,23.0,29.99,NW,323,3.0,6.0,71,0.00,,,0.00,weatherlink.com 1.10,2013-04-01 08:01:00,
2013-04-01 03:17:00,30.8,23.0,29.99,WNW,300,3.0,6.0,73,0.00,,,0.00,weatherlink.com 1.10,2013-04-01 08:17:00,
2013-04-01 03:32:00,30.7,23.0,30.00,NW,326,2.0,6.0,72,0.00,,,0.00,weatherlink.com 1.10,2013-04-01 08:32:00,
2013-04-01 04:02:00,30.4,22.0,30.01,NNW,340,4.0,7.0,71,0.00,,,0.00,weatherlink.com 1.10,2013-04-01 09:02:00,
2013-04-01 04:17:00,30.1,22.0,30.02,NW,317,2.0,7.0,72,0.00,,,0.00,weatherlink.com 1.10,2013-04-01 09:17:00,
2013-04-01 04:32:00,30.0,22.0,30.02,NNW,331,3.0,7.0,72,0.00,,,0.00,weatherlink.com 1.10,2013-04-01 09:32:00,
2013-04-01 04:47:00,29.8,22.0,30.03,NNW,329,2.0,7.0,72,0.00,,,0.00,weatherlink.com 1.10,2013-04-01 09:47:00,
2013-04-01 05:02:00,29.6,22.0,30.04,NW,304,4.0,6.0,73,0.00,,,0.00,weatherlink.com 1.10,2013-04-01 10:02:00,
2013-04-01 05:17:00,29.2,22.0,30.04,NW,319,3.0,4.0,74,0.00,,,0.00,weatherlink.com 1.10,2013-04-01 10:17:00,
2013-04-01 05:32:00,28.8,22.0,30.05,NW,314,1.0,4.0,75,0.00,,,0.00,weatherlink.com 1.10,2013-04-01 10:32:00,
2013-04-01 05:47:00,28.7,21.0,30.05,NW,313,3.0,9.0,74,0.00,,,0.00,weatherlink.com 1.10,2013-04-01 10:47:00,
2013-04-01 06:02:00,28.7,21.0,30.06,NNW,336,3.0,7.0,74,0.00,,,0.00,weatherlink.com 1.10,2013-04-01 11:02:00,
2013-04-01 06:17:00,28.6,21.0,30.07,NW,321,2.0,6.0,73,0.00,,,0.00,weatherlink.com 1.10,2013-04-01 11:17:00,
2013-04-01 06:32:00,28.3,21.0,30.07,NW,325,3.0,5.0,73,0.00,,,0.00,weatherlink.com 1.10,2013-04-01 11:32:00,
2013-04-01 06:47:00,28.0,20.0,30.08,NW,315,1.0,7.0,73,0.00,,,0.00,weatherlink.com 1.10,2013-04-01 11:47:00,
2013-04-01 07:02:00,28.1,20.0,30.09,NNW,331,3.0,4.0,73,0.00,,,0.00,weatherlink.com 1.10,2013-04-01 12:02:00,
2013-04-01 07:17:00,28.5,21.0,30.10,NW,312,2.0,5.0,72,0.00,,,0.00,weatherlink.com 1.10,2013-04-01 12:17:00,
2013-04-01 07:32:00,29.1,20.0,30.11,NW,308,5.0,6.0,70,0.00,,,0.00,weatherlink.com 1.10,2013-04-01 12:32:00,
2013-04-01 07:47:00,29.7,21.0,30.12,NW,323,5.0,8.0,69,0.00,,,0.00,weatherlink.com 1.10,2013-04-01 12:47:00,
2013-04-01 08:02:00,30.3,20.0,30.12,NW,323,3.0,8.0,66,0.00,,,0.00,weatherlink.com 1.10,2013-04-01 13:02:00,
2013-04-01 08:17:00,30.8,19.0,30.13,NNE,15,2.0,7.0,62,0.00,,,0.00,weatherlink.com 1.10,2013-04-01 13:17:00,
2013-04-01 08:32:00,31.3,19.0,30.14,WNW,302,2.0,10.0,60,0.00,,,0.00,weatherlink.com 1.10,2013-04-01 13:32:00,
2013-04-01 08:47:00,31.3,20.0,30.14,NW,313,3.0,9.0,62,0.00,,,0.00,weatherlink.com 1.10,2013-04-01 13:47:00,
2013-04-01 09:02:00,31.6,20.0,30.14,NNW,332,2.0,9.0,63,0.00,,,0.00,weatherlink.com 1.10,2013-04-01 14:02:00,
2013-04-01 09:17:00,32.4,19.0,30.15,North,355,4.0,9.0,58,0.00,,,0.00,weatherlink.com 1.10,2013-04-01 14:17:00,
2013-04-01 09:32:00,33.0,19.0,30.15,NNW,336,4.0,8.0,56,0.00,,,0.00,weatherlink.com 1.10,2013-04-01 14:32:00,
2013-04-01 09:47:00,32.6,18.0,30.15,NNW,332,6.0,7.0,56,0.00,,,0.00,weatherlink.com 1.10,2013-04-01 14:47:00,
2013-04-01 10:02:00,33.2,18.0,30.16,NNW,338,5.0,11.0,53,0.00,,,0.00,weatherlink.com 1.10,2013-04-01 15:02:00,
2013-04-01 10:18:00,33.2,18.0,30.16,NNW,347,8.0,11.0,54,0.00,,,0.00,weatherlink.com 1.10,2013-04-01 15:18:00,
2013-04-01 10:32:00,33.2,18.0,30.16,NNW,327,5.0,7.0,55,0.00,,,0.00,weatherlink.com 1.10,2013-04-01 15:32:00,
2013-04-01 10:48:00,33.6,17.0,30.16,NNW,329,1.0,8.0,51,0.00,,,0.00,weatherlink.com 1.10,2013-04-01 15:48:00,
2013-04-01 11:02:00,34.2,16.0,30.17,NW,323,2.0,10.0,48,0.00,,,0.00,weatherlink.com 1.10,2013-04-01 16:02:00,
2013-04-01 11:18:00,34.7,19.0,30.17,NNW,334,4.0,7.0,52,0.00,,,0.00,weatherlink.com 1.10,2013-04-01 16:18:00,
2013-04-01 11:33:00,34.2,16.0,30.17,WNW,289,3.0,10.0,48,0.00,,,0.00,weatherlink.com 1.10,2013-04-01 16:33:00,
2013-04-01 11:48:00,35.1,16.0,30.17,North,355,6.0,9.0,45,0.00,,,0.00,weatherlink.com 1.10,2013-04-01 16:48:00,
2013-04-01 12:03:00,35.6,17.0,30.18,NNW,337,3.0,11.0,46,0.00,,,0.00,weatherlink.com 1.10,2013-04-01 17:03:00,
2013-04-01 12:18:00,35.4,16.0,30.17,NNW,340,8.0,9.0,46,0.00,,,0.00,weatherlink.com 1.10,2013-04-01 17:18:00,
2013-04-01 12:48:00,36.4,17.0,30.18,NNW,345,6.0,12.0,45,0.00,,,0.00,weatherlink.com 1.10,2013-04-01 17:48:00,
2013-04-01 13:03:00,36.9,19.0,30.18,NNW,346,4.0,13.0,49,0.00,,,0.00,weatherlink.com 1.10,2013-04-01 18:03:00,
2013-04-01 13:18:00,37.0,18.0,30.17,NW,322,3.0,13.0,47,0.00,,,0.00,weatherlink.com 1.10,2013-04-01 18:18:00,
2013-04-01 13:33:00,36.8,18.0,30.17,NNW,340,3.0,11.0,46,0.00,,,0.00,weatherlink.com 1.10,2013-04-01 18:33:00,
2013-04-01 13:48:00,37.4,18.0,30.17,NNW,340,4.0,13.0,46,0.00,,,0.00,weatherlink.com 1.10,2013-04-01 18:48:00,
2013-04-01 14:03:00,37.4,19.0,30.17,NNW,329,2.0,17.0,47,0.00,,,0.00,weatherlink.com 1.10,2013-04-01 19:03:00,
2013-04-01 14:18:00,37.4,19.0,30.16,NW,314,7.0,10.0,47,0.00,,,0.00,weatherlink.com 1.10,2013-04-01 19:18:00,
2013-04-01 14:33:00,37.9,19.0,30.16,NNW,328,6.0,12.0,47,0.00,,,0.00,weatherlink.com 1.10,2013-04-01 19:33:00,
2013-04-01 14:48:00,38.8,20.0,30.16,West,279,5.0,12.0,48,0.00,,,0.00,weatherlink.com 1.10,2013-04-01 19:48:00,
2013-04-01 15:03:00,38.8,18.0,30.16,WSW,257,6.0,15.0,43,0.00,,,0.00,weatherlink.com 1.10,2013-04-01 20:03:00,
2013-04-01 15:18:00,38.2,20.0,30.16,North,355,2.0,12.0,48,0.00,,,0.00,weatherlink.com 1.10,2013-04-01 20:18:00,
2013-04-01 15:33:00,37.7,18.0,30.16,NNW,340,4.0,11.0,46,0.00,,,0.00,weatherlink.com 1.10,2013-04-01 20:33:00,
2013-04-01 15:48:00,38.3,19.0,30.16,West,261,5.0,12.0,46,0.00,,,0.00,weatherlink.com 1.10,2013-04-01 20:48:00,
2013-04-01 16:03:00,38.6,19.0,30.16,West,266,3.0,9.0,46,0.00,,,0.00,weatherlink.com 1.10,2013-04-01 21:03:00,
2013-04-01 16:18:00,37.9,19.0,30.16,WNW,289,5.0,10.0,47,0.00,,,0.00,weatherlink.com 1.10,2013-04-01 21:18:00,
2013-04-01 16:33:00,38.6,20.0,30.15,West,280,3.0,11.0,47,0.00,,,0.00,weatherlink.com 1.10,2013-04-01 21:33:00,
2013-04-01 16:48:00,38.8,19.0,30.15,NNW,329,10.0,10.0,45,0.00,,,0.00,weatherlink.com 1.10,2013-04-01 21:48:00,
2013-04-01 17:03:00,38.7,20.0,30.16,West,281,1.0,11.0,47,0.00,,,0.00,weatherlink.com 1.10,2013-04-01 22:03:00,
2013-04-01 17:18:00,38.3,19.0,30.16,West,274,2.0,11.0,45,0.00,,,0.00,weatherlink.com 1.10,2013-04-01 22:18:00,
2013-04-01 17:33:00,37.8,19.0,30.17,NNW,330,3.0,14.0,47,0.00,,,0.00,weatherlink.com 1.10,2013-04-01 22:33:00,
2013-04-01 17:48:00,38.0,18.0,30.17,NNW,332,5.0,12.0,45,0.00,,,0.00,weatherlink.com 1.10,2013-04-01 22:48:00,
2013-04-01 18:03:00,38.0,19.0,30.17,SW,229,6.0,10.0,46,0.00,,,0.00,weatherlink.com 1.10,2013-04-01 23:03:00,
2013-04-01 18:18:00,37.9,19.0,30.17,NNW,328,5.0,11.0,47,0.00,,,0.00,weatherlink.com 1.10,2013-04-01 23:18:00,
2013-04-01 18:33:00,36.8,19.0,30.17,NW,326,4.0,9.0,48,0.00,,,0.00,weatherlink.com 1.10,2013-04-01 23:33:00,
2013-04-01 18:48:00,35.9,19.0,30.17,NNW,344,4.0,7.0,50,0.00,,,0.00,weatherlink.com 1.10,2013-04-01 23:48:00,
2013-04-01 19:03:00,35.1,18.0,30.17,NNW,331,0.0,6.0,51,0.00,,,0.00,weatherlink.com 1.10,2013-04-02 00:03:00,
2013-04-01 19:18:00,34.3,18.0,30.17,West,261,2.0,5.0,52,0.00,,,0.00,weatherlink.com 1.10,2013-04-02 00:18:00,
2013-04-01 19:33:00,33.6,19.0,30.17,North,355,0.0,3.0,56,0.00,,,0.00,weatherlink.com 1.10,2013-04-02 00:33:00,
2013-04-01 19:48:00,32.9,19.0,30.17,NNW,333,0.0,5.0,57,0.00,,,0.00,weatherlink.com 1.10,2013-04-02 00:48:00,
2013-04-01 20:03:00,32.4,20.0,30.18,WSW,253,1.0,5.0,60,0.00,,,0.00,weatherlink.com 1.10,2013-04-02 01:03:00,
2013-04-01 20:18:00,32.1,19.0,30.18,NW,306,2.0,4.0,60,0.00,,,0.00,weatherlink.com 1.10,2013-04-02 01:18:00,
2013-04-01 20:34:00,31.8,19.0,30.18,West,266,2.0,4.0,60,0.00,,,0.00,weatherlink.com 1.10,2013-04-02 01:34:00,
2013-04-01 20:49:00,31.6,19.0,30.19,WSW,258,1.0,4.0,61,0.00,,,0.00,weatherlink.com 1.10,2013-04-02 01:49:00,
2013-04-01 21:19:00,31.2,19.0,30.20,WSW,244,2.0,5.0,62,0.00,,,0.00,weatherlink.com 1.10,2013-04-02 02:19:00,
2013-04-01 21:34:00,30.9,20.0,30.21,WSW,254,0.0,4.0,64,0.00,,,0.00,weatherlink.com 1.10,2013-04-02 02:34:00,
2013-04-01 21:49:00,30.5,20.0,30.21,West,259,1.0,3.0,65,0.00,,,0.00,weatherlink.com 1.10,2013-04-02 02:49:00,
2013-04-01 22:04:00,30.2,20.0,30.22,NW,320,1.0,3.0,66,0.00,,,0.00,weatherlink.com 1.10,2013-04-02 03:04:00,
2013-04-01 22:19:00,30.1,20.0,30.22,WSW,251,0.0,4.0,65,0.00,,,0.00,weatherlink.com 1.10,2013-04-02 03:19:00,
2013-04-01 22:34:00,29.9,20.0,30.22,WNW,290,0.0,2.0,66,0.00,,,0.00,weatherlink.com 1.10,2013-04-02 03:34:00,
2013-04-01 22:50:00,29.7,20.0,30.23,WNW,297,0.0,4.0,66,0.00,,,0.00,weatherlink.com 1.10,2013-04-02 03:50:00,
2013-04-01 23:04:00,29.5,20.0,30.23,NW,326,1.0,4.0,67,0.00,,,0.00,weatherlink.com 1.10,2013-04-02 04:04:00,
2013-04-01 23:19:00,29.4,20.0,30.23,NW,323,0.0,4.0,68,0.00,,,0.00,weatherlink.com 1.10,2013-04-02 04:19:00,
2013-04-01 23:34:00,29.3,20.0,30.23,NNW,329,0.0,4.0,68,0.00,,,0.00,weatherlink.com 1.10,2013-04-02 04:34:00,
2013-04-01 23:49:00,29.0,20.0,30.23,NNW,336,1.0,5.0,69,0.00,,,0.00,weatherlink.com 1.10,2013-04-02 04:49:00,